createdAt,value
2022-10-20T00:01:11.853Z,13.50
2022-10-20T00:03:38.899Z,13.50
2022-10-20T00:06:10.007Z,13.50
2022-10-20T00:08:37.616Z,13.50
2022-10-20T00:11:04.921Z,13.50
2022-10-20T00:13:32.264Z,13.50
2022-10-20T00:16:00.247Z,13.40
2022-10-20T00:18:27.927Z,13.40
2022-10-20T00:20:55.344Z,13.40
2022-10-20T00:23:22.864Z,13.40
2022-10-20T00:25:49.823Z,13.40
2022-10-20T00:28:16.675Z,13.30
2022-10-20T00:30:43.528Z,13.40
2022-10-20T00:33:10.415Z,13.40
2022-10-20T00:35:38.949Z,13.40
2022-10-20T00:38:06.059Z,13.40
2022-10-20T00:40:33.031Z,13.40
2022-10-20T00:42:59.891Z,13.30
2022-10-20T00:45:27.790Z,13.30
2022-10-20T00:47:58.918Z,13.40
2022-10-20T00:50:31.743Z,13.40
2022-10-20T00:53:01.571Z,13.40
2022-10-20T00:55:34.029Z,13.40
2022-10-20T00:58:02.235Z,13.40
2022-10-20T01:00:30.544Z,13.40
2022-10-20T01:03:00.890Z,13.40
2022-10-20T01:05:27.969Z,13.30
2022-10-20T01:07:55.040Z,13.30
2022-10-20T01:10:25.280Z,13.30
2022-10-20T01:13:01.128Z,13.30
2022-10-20T01:15:42.918Z,13.30
2022-10-20T01:18:13.315Z,13.30
2022-10-20T01:20:52.211Z,13.30
2022-10-20T01:23:18.978Z,13.30
2022-10-20T01:26:13.800Z,13.30
2022-10-20T01:29:04.811Z,13.20
2022-10-20T01:31:56.609Z,13.20
2022-10-20T01:34:30.288Z,13.20
2022-10-20T01:37:34.459Z,13.20
2022-10-20T01:40:36.688Z,13.10
2022-10-20T01:43:07.590Z,13.10
2022-10-20T01:45:37.183Z,13.10
2022-10-20T01:48:07.190Z,13.10
2022-10-20T01:50:35.744Z,13.10
2022-10-20T01:53:02.731Z,13.10
2022-10-20T01:55:30.273Z,13.10
2022-10-20T01:58:21.163Z,13.10
2022-10-20T02:00:51.574Z,13.00
2022-10-20T02:04:09.526Z,13.10
2022-10-20T02:07:30.421Z,13.10
2022-10-20T02:10:09.677Z,13.10
2022-10-20T02:12:41.386Z,13.10
2022-10-20T02:15:12.372Z,13.10
2022-10-20T02:17:41.999Z,13.00
2022-10-20T02:20:10.548Z,13.00
2022-10-20T02:22:38.864Z,13.00
2022-10-20T02:25:07.068Z,13.00
2022-10-20T02:27:37.280Z,13.00
2022-10-20T02:30:06.423Z,12.90
2022-10-20T02:32:35.685Z,12.90
2022-10-20T02:35:09.827Z,12.90
2022-10-20T02:37:36.904Z,12.90
2022-10-20T02:40:04.380Z,12.80
2022-10-20T02:42:31.318Z,12.80
2022-10-20T02:44:58.138Z,12.80
2022-10-20T02:47:24.982Z,12.80
2022-10-20T02:49:51.825Z,12.80
2022-10-20T02:52:18.656Z,12.90
2022-10-20T02:54:45.533Z,12.90
2022-10-20T02:57:12.289Z,12.90
2022-10-20T02:59:39.141Z,12.80
2022-10-20T03:02:06.086Z,12.80
2022-10-20T03:04:33.022Z,12.80
2022-10-20T03:06:59.864Z,12.80
2022-10-20T03:09:26.884Z,12.80
2022-10-20T03:11:53.831Z,12.80
2022-10-20T03:14:20.635Z,12.80
2022-10-20T03:16:47.470Z,12.80
2022-10-20T03:19:14.405Z,12.80
2022-10-20T03:21:41.321Z,12.80
2022-10-20T03:24:08.099Z,12.80
2022-10-20T03:26:34.954Z,12.80
2022-10-20T03:29:01.855Z,12.80
2022-10-20T03:31:28.925Z,12.90
2022-10-20T03:33:55.719Z,12.90
2022-10-20T03:36:23.131Z,13.00
2022-10-20T03:38:49.964Z,13.00
2022-10-20T03:41:16.912Z,13.00
2022-10-20T03:43:43.751Z,13.00
2022-10-20T03:46:11.718Z,13.00
2022-10-20T03:48:39.769Z,13.00
2022-10-20T03:51:08.392Z,13.00
2022-10-20T03:53:35.755Z,13.00
2022-10-20T03:56:07.339Z,13.00
2022-10-20T03:58:34.425Z,13.00
2022-10-20T04:01:01.833Z,13.00
2022-10-20T04:03:28.653Z,13.00
2022-10-20T04:05:55.446Z,13.00
2022-10-20T04:08:22.294Z,13.00
2022-10-20T04:10:49.167Z,13.00
2022-10-20T04:13:16.091Z,13.00
2022-10-20T04:15:42.933Z,13.00
2022-10-20T04:18:09.779Z,13.00
2022-10-20T04:20:38.317Z,13.00
2022-10-20T04:23:07.559Z,13.00
2022-10-20T04:25:34.465Z,12.90
2022-10-20T04:28:01.308Z,13.00
2022-10-20T04:30:28.136Z,13.00
2022-10-20T04:32:54.984Z,12.90
2022-10-20T04:35:21.866Z,12.90
2022-10-20T04:37:48.715Z,12.90
2022-10-20T04:40:15.634Z,12.90
2022-10-20T04:42:42.507Z,13.00
2022-10-20T04:45:09.842Z,13.00
2022-10-20T04:47:37.735Z,12.90
2022-10-20T04:50:05.991Z,12.90
2022-10-20T04:52:33.016Z,13.00
2022-10-20T04:54:59.956Z,13.00
2022-10-20T04:57:27.005Z,13.00
2022-10-20T04:59:53.864Z,13.00
2022-10-20T05:02:20.708Z,13.00
2022-10-20T05:04:47.594Z,13.10
2022-10-20T05:07:14.490Z,13.10
2022-10-20T05:09:41.429Z,13.10
2022-10-20T05:12:08.455Z,13.20
2022-10-20T05:14:35.408Z,13.20
2022-10-20T05:17:04.214Z,13.20
2022-10-20T05:19:33.387Z,13.10
2022-10-20T05:22:00.222Z,13.10
2022-10-20T05:24:29.931Z,13.10
2022-10-20T05:26:57.200Z,13.10
2022-10-20T05:29:24.044Z,13.10
2022-10-20T05:31:50.943Z,13.10
2022-10-20T05:34:17.770Z,13.10
2022-10-20T05:36:44.650Z,13.10
2022-10-20T05:39:12.025Z,13.10
2022-10-20T05:41:39.427Z,13.10
2022-10-20T05:44:08.825Z,13.00
2022-10-20T05:46:42.852Z,13.00
2022-10-20T05:49:17.446Z,13.00
2022-10-20T05:51:45.662Z,13.00
2022-10-20T05:54:13.604Z,13.10
2022-10-20T05:56:40.868Z,13.10
2022-10-20T05:59:08.000Z,13.10
2022-10-20T06:01:48.362Z,13.20
2022-10-20T06:04:23.774Z,13.20
2022-10-20T06:06:52.227Z,13.20
2022-10-20T06:09:19.878Z,13.20
2022-10-20T06:11:47.437Z,13.10
2022-10-20T06:14:14.486Z,13.20
2022-10-20T06:16:41.301Z,13.10
2022-10-20T06:19:08.196Z,13.20
2022-10-20T06:21:37.598Z,13.20
2022-10-20T06:24:06.214Z,13.30
2022-10-20T06:26:36.646Z,13.30
2022-10-20T06:29:08.581Z,13.30
2022-10-20T06:31:41.530Z,13.40
2022-10-20T06:34:12.756Z,13.40
2022-10-20T06:36:41.918Z,13.40
2022-10-20T06:39:12.963Z,13.30
2022-10-20T06:41:40.216Z,13.40
2022-10-20T06:44:18.878Z,13.30
2022-10-20T06:46:45.767Z,13.40
2022-10-20T06:49:13.320Z,13.40
2022-10-20T06:51:40.441Z,13.40
2022-10-20T06:54:07.414Z,13.40
2022-10-20T06:56:35.814Z,13.40
2022-10-20T06:59:03.663Z,13.30
2022-10-20T07:01:33.090Z,13.40
2022-10-20T07:04:06.125Z,13.40
2022-10-20T07:06:38.930Z,13.50
2022-10-20T07:09:08.391Z,13.50
2022-10-20T07:11:36.104Z,13.50
2022-10-20T07:14:03.596Z,13.50
2022-10-20T07:16:32.710Z,13.60
2022-10-20T07:19:00.337Z,13.60
2022-10-20T07:21:32.462Z,13.60
2022-10-20T07:24:04.169Z,13.70
2022-10-20T07:26:34.749Z,13.70
2022-10-20T07:29:02.956Z,13.70
2022-10-20T07:31:33.007Z,13.70
2022-10-20T07:34:13.645Z,13.80
2022-10-20T07:36:50.064Z,13.80
2022-10-20T07:39:16.963Z,13.80
2022-10-20T07:41:48.031Z,13.80
2022-10-20T07:44:16.080Z,13.90
2022-10-20T07:46:42.971Z,14.00
2022-10-20T07:51:56.970Z,14.10
2022-10-20T07:54:23.892Z,14.10
2022-10-20T07:56:50.850Z,14.20
2022-10-20T07:59:17.834Z,14.30
2022-10-20T08:01:44.871Z,14.30
2022-10-20T08:04:12.147Z,14.40
2022-10-20T08:06:39.604Z,14.40
2022-10-20T08:09:07.378Z,14.50
2022-10-20T08:11:34.884Z,14.60
2022-10-20T08:14:01.719Z,14.60
2022-10-20T08:16:39.081Z,14.60
2022-10-20T08:21:49.817Z,14.80
2022-10-20T08:24:16.687Z,14.80
2022-10-20T08:26:43.623Z,14.90
2022-10-20T08:29:12.221Z,14.90
2022-10-20T08:31:39.713Z,15.00
2022-10-20T08:34:08.062Z,15.00
2022-10-20T08:36:37.119Z,15.10
2022-10-20T08:39:06.184Z,15.20
2022-10-20T08:42:07.658Z,15.20
2022-10-20T08:44:30.593Z,15.30
2022-10-20T08:47:01.353Z,15.40
2022-10-20T08:49:32.174Z,15.50
2022-10-20T08:51:59.830Z,15.50
2022-10-20T08:54:26.820Z,15.60
2022-10-20T08:56:53.641Z,15.60
2022-10-20T08:59:33.287Z,15.70
2022-10-20T09:02:00.645Z,15.80
2022-10-20T09:04:35.089Z,15.80
2022-10-20T09:07:10.718Z,15.80
2022-10-20T09:09:37.791Z,15.90
2022-10-20T09:12:07.138Z,15.90
2022-10-20T09:14:37.058Z,15.90
2022-10-20T09:17:07.927Z,16.00
2022-10-20T09:19:36.526Z,16.00
2022-10-20T09:22:06.677Z,16.00
2022-10-20T09:24:35.899Z,16.00
2022-10-20T09:27:21.447Z,16.00
2022-10-20T09:29:48.337Z,16.10
2022-10-20T09:32:51.159Z,16.10
2022-10-20T09:35:19.954Z,16.20
2022-10-20T09:38:09.765Z,16.20
2022-10-20T09:40:43.937Z,16.20
2022-10-20T09:43:16.714Z,16.30
2022-10-20T09:45:54.679Z,16.30
2022-10-20T09:48:31.532Z,16.40
2022-10-20T09:51:00.290Z,16.40
2022-10-20T09:53:36.054Z,16.40
2022-10-20T09:56:03.622Z,16.50
2022-10-20T09:58:33.694Z,16.60
2022-10-20T10:01:06.028Z,16.60
2022-10-20T10:03:45.984Z,16.60
2022-10-20T10:06:33.180Z,16.70
2022-10-20T10:09:02.039Z,16.70
2022-10-20T10:11:36.768Z,16.80
2022-10-20T10:14:04.935Z,16.80
2022-10-20T10:16:42.716Z,16.90
2022-10-20T10:19:19.245Z,16.90
2022-10-20T10:21:58.281Z,16.90
2022-10-20T10:24:43.716Z,17.00
2022-10-20T10:27:29.822Z,17.00
2022-10-20T10:30:24.323Z,17.00
2022-10-20T10:32:51.138Z,17.00
2022-10-20T10:35:38.103Z,17.10
2022-10-20T10:38:05.033Z,17.10
2022-10-20T10:40:45.338Z,17.10
2022-10-20T10:43:22.270Z,17.10
2022-10-20T10:45:57.094Z,17.10
2022-10-20T10:49:21.299Z,17.10
2022-10-20T10:52:04.610Z,17.10
2022-10-20T10:54:39.358Z,17.10
2022-10-20T10:57:18.226Z,17.10
2022-10-20T10:59:48.497Z,17.10
2022-10-20T11:02:24.736Z,17.10
2022-10-20T11:04:54.351Z,17.20
2022-10-20T11:07:36.667Z,17.20
2022-10-20T11:10:18.211Z,17.20
2022-10-20T11:13:12.725Z,17.20
2022-10-20T11:15:50.371Z,17.20
2022-10-20T11:18:44.403Z,17.20
2022-10-20T11:21:35.935Z,17.20
2022-10-20T11:24:32.381Z,17.20
2022-10-20T11:27:08.150Z,17.20
2022-10-20T11:29:43.624Z,17.10
2022-10-20T11:32:44.041Z,17.10
2022-10-20T11:35:28.445Z,17.10
2022-10-20T11:38:13.203Z,17.00
2022-10-20T11:40:42.948Z,17.00
2022-10-20T11:43:36.881Z,16.90
2022-10-20T11:46:09.494Z,16.90
2022-10-20T11:48:40.365Z,16.90
2022-10-20T11:51:31.085Z,16.90
2022-10-20T11:54:33.182Z,16.90
2022-10-20T11:57:11.589Z,16.90
2022-10-20T11:59:50.164Z,16.90
2022-10-20T12:02:29.499Z,16.80
2022-10-20T12:05:11.405Z,16.80
2022-10-20T12:08:24.537Z,16.80
2022-10-20T12:11:04.377Z,16.90
2022-10-20T12:13:48.230Z,16.90
2022-10-20T12:16:58.365Z,16.90
2022-10-20T12:19:30.760Z,17.00
2022-10-20T12:22:05.563Z,17.00
2022-10-20T12:24:35.407Z,17.00
2022-10-20T12:27:08.779Z,17.10
2022-10-20T12:29:35.764Z,17.10
2022-10-20T12:32:21.435Z,17.10
2022-10-20T12:34:55.065Z,17.10
2022-10-20T12:37:24.849Z,17.10
2022-10-20T12:40:11.599Z,17.10
2022-10-20T12:42:46.004Z,17.10
2022-10-20T12:45:19.161Z,17.10
2022-10-20T12:48:20.759Z,17.10
2022-10-20T12:50:49.926Z,17.10
2022-10-20T12:53:26.733Z,17.20
2022-10-20T12:56:09.015Z,17.20
2022-10-20T12:58:59.765Z,17.30
2022-10-20T13:01:28.500Z,17.40
2022-10-20T13:03:55.328Z,17.50
2022-10-20T13:06:27.144Z,17.50
2022-10-20T13:09:03.481Z,17.60
2022-10-20T13:11:39.437Z,17.60
2022-10-20T13:14:12.057Z,17.80
2022-10-20T13:16:51.898Z,17.90
2022-10-20T13:19:30.445Z,18.00
2022-10-20T13:21:57.820Z,18.00
2022-10-20T13:24:32.606Z,18.20
2022-10-20T13:27:04.191Z,18.20
2022-10-20T13:29:39.669Z,18.30
2022-10-20T13:32:23.974Z,18.30
2022-10-20T13:35:02.438Z,18.30
2022-10-20T13:37:41.313Z,18.30
2022-10-20T13:40:18.861Z,18.30
2022-10-20T13:43:18.732Z,18.30
2022-10-20T13:46:07.739Z,18.40
2022-10-20T13:48:40.706Z,18.40
2022-10-20T13:51:19.796Z,18.40
2022-10-20T13:53:51.654Z,18.40
2022-10-20T13:56:30.661Z,18.40
2022-10-20T13:59:05.648Z,18.40
2022-10-20T14:01:35.917Z,18.50
2022-10-20T14:04:02.817Z,18.50
2022-10-20T14:06:36.269Z,18.60
2022-10-20T14:09:22.012Z,18.70
2022-10-20T14:11:58.526Z,18.70
2022-10-20T14:14:27.427Z,18.80
2022-10-20T14:17:06.555Z,18.80
2022-10-20T14:19:34.330Z,18.90
2022-10-20T14:22:21.344Z,18.90
2022-10-20T14:24:54.658Z,18.90
2022-10-20T14:27:25.835Z,19.00
2022-10-20T14:29:53.959Z,19.10
2022-10-20T14:32:27.122Z,19.10
2022-10-20T14:35:00.104Z,19.10
2022-10-20T14:37:37.188Z,19.20
2022-10-20T14:40:08.575Z,19.20
2022-10-20T14:42:36.266Z,19.30
2022-10-20T14:45:04.505Z,19.30
2022-10-20T14:47:40.145Z,19.30
2022-10-20T14:50:07.856Z,19.40
2022-10-20T14:52:38.785Z,19.40
2022-10-20T14:55:41.470Z,19.40
2022-10-20T14:58:53.119Z,19.40
2022-10-20T15:01:29.130Z,19.50
2022-10-20T15:04:16.452Z,19.50
2022-10-20T15:06:44.229Z,19.50
2022-10-20T15:09:32.767Z,19.50
2022-10-20T15:12:05.573Z,19.50
2022-10-20T15:14:32.525Z,19.50
2022-10-20T15:16:59.361Z,19.50
2022-10-20T15:19:35.170Z,19.60
2022-10-20T15:24:40.511Z,19.50
2022-10-20T15:27:15.710Z,19.60
2022-10-20T15:29:51.770Z,19.50
2022-10-20T15:32:18.913Z,19.50
2022-10-20T15:34:45.914Z,19.50
2022-10-20T15:37:12.864Z,19.50
2022-10-20T15:39:39.740Z,19.50
2022-10-20T15:42:11.279Z,19.60
2022-10-20T15:44:38.474Z,19.60
2022-10-20T15:47:05.285Z,19.60
2022-10-20T15:49:32.422Z,19.60
2022-10-20T15:51:59.278Z,19.60
2022-10-20T15:54:26.266Z,19.70
2022-10-20T15:56:53.103Z,19.70
2022-10-20T15:59:19.936Z,19.70
2022-10-20T16:01:46.895Z,19.70
2022-10-20T16:04:30.210Z,19.70
2022-10-20T16:06:58.987Z,19.60
2022-10-20T16:09:28.906Z,19.60
2022-10-20T16:11:55.881Z,19.60
2022-10-20T16:14:22.718Z,19.60
2022-10-20T16:16:49.675Z,19.60
2022-10-20T16:19:16.917Z,19.60
2022-10-20T16:21:44.205Z,19.60
2022-10-20T16:24:11.497Z,19.60
2022-10-20T16:26:38.476Z,19.50
2022-10-20T16:29:05.358Z,19.50
2022-10-20T16:31:32.696Z,19.50
2022-10-20T16:34:00.619Z,19.50
2022-10-20T16:36:27.631Z,19.50
2022-10-20T16:38:56.396Z,19.50
2022-10-20T16:41:23.575Z,19.50
2022-10-20T16:43:50.428Z,19.40
2022-10-20T16:46:17.685Z,19.40
2022-10-20T16:48:47.625Z,19.40
2022-10-20T16:51:15.902Z,19.40
2022-10-20T16:53:43.288Z,19.40
2022-10-20T16:56:10.639Z,19.40
2022-10-20T16:58:37.704Z,19.30
2022-10-20T17:01:11.249Z,19.30
2022-10-20T17:06:11.414Z,19.30
2022-10-20T17:08:39.607Z,19.30
2022-10-20T17:11:12.961Z,19.20
2022-10-20T17:13:40.634Z,19.20
2022-10-20T17:16:17.867Z,19.20
2022-10-20T17:18:45.213Z,19.10
2022-10-20T17:21:13.595Z,19.10
2022-10-20T17:23:43.150Z,19.10
2022-10-20T17:26:14.638Z,19.00
2022-10-20T17:28:42.559Z,19.00
2022-10-20T17:31:12.233Z,19.00
2022-10-20T17:33:40.075Z,19.00
2022-10-20T17:36:07.616Z,18.90
2022-10-20T17:38:35.297Z,18.90
2022-10-20T17:41:11.305Z,18.90
2022-10-20T17:43:38.456Z,18.90
2022-10-20T17:46:13.500Z,18.90
2022-10-20T17:48:40.560Z,18.80
2022-10-20T17:51:12.979Z,18.80
2022-10-20T17:53:43.497Z,18.80
2022-10-20T17:56:13.902Z,18.80
2022-10-20T17:58:42.984Z,18.80
2022-10-20T18:01:11.350Z,18.70
2022-10-20T18:03:38.869Z,18.70
2022-10-20T18:06:19.988Z,18.70
2022-10-20T18:08:47.844Z,18.60
2022-10-20T18:11:20.433Z,18.60
2022-10-20T18:13:47.784Z,18.60
2022-10-20T18:16:17.851Z,18.50
2022-10-20T18:18:45.270Z,18.50
2022-10-20T18:21:13.825Z,18.50
2022-10-20T18:23:45.777Z,18.50
2022-10-20T18:26:14.453Z,18.50
2022-10-20T18:28:44.468Z,18.50
2022-10-20T18:31:18.054Z,18.50
2022-10-20T18:33:45.816Z,18.50
2022-10-20T18:36:14.894Z,18.50
2022-10-20T18:38:43.698Z,18.40
2022-10-20T18:41:13.820Z,18.40
2022-10-20T18:43:41.182Z,18.40
2022-10-20T18:46:10.163Z,18.40
2022-10-20T18:48:38.762Z,18.40
2022-10-20T18:51:07.813Z,18.40
2022-10-20T18:53:36.048Z,18.40
2022-10-20T18:56:08.788Z,18.30
2022-10-20T18:58:38.384Z,18.30
2022-10-20T19:01:08.357Z,18.30
2022-10-20T19:03:35.670Z,18.30
2022-10-20T19:06:04.671Z,18.30
2022-10-20T19:08:31.610Z,18.20
2022-10-20T19:10:58.494Z,18.20
2022-10-20T19:13:26.931Z,18.20
2022-10-20T19:15:55.316Z,18.20
2022-10-20T19:18:23.817Z,18.20
2022-10-20T19:20:58.662Z,18.20
2022-10-20T19:23:26.481Z,18.20
2022-10-20T19:26:07.580Z,18.20
2022-10-20T19:28:39.740Z,18.20
2022-10-20T19:31:20.642Z,18.20
2022-10-20T19:33:50.789Z,18.20
2022-10-20T19:36:18.509Z,18.20
2022-10-20T19:38:45.786Z,18.20
2022-10-20T19:41:13.161Z,18.20
2022-10-20T19:43:40.177Z,18.20
2022-10-20T19:46:08.887Z,18.20
2022-10-20T19:48:36.113Z,18.20
2022-10-20T19:51:03.199Z,18.20
2022-10-20T19:53:30.304Z,18.10
2022-10-20T19:55:57.208Z,18.20
2022-10-20T19:58:24.118Z,18.10
2022-10-20T20:00:56.169Z,18.20
2022-10-20T20:03:23.688Z,18.20
2022-10-20T20:06:06.015Z,18.10
2022-10-20T20:08:33.752Z,18.10
2022-10-20T20:11:02.045Z,18.10
2022-10-20T20:13:29.215Z,18.10
2022-10-20T20:15:56.130Z,18.10
2022-10-20T20:18:23.153Z,18.10
2022-10-20T20:20:50.130Z,18.20
2022-10-20T20:23:22.500Z,18.20
2022-10-20T20:25:52.807Z,18.20
2022-10-20T20:28:19.707Z,18.30
2022-10-20T20:31:01.777Z,18.30
2022-10-20T20:33:29.511Z,18.20
2022-10-20T20:35:58.015Z,18.30
2022-10-20T20:38:25.090Z,18.30
2022-10-20T20:40:52.839Z,18.30
2022-10-20T20:43:20.365Z,18.20
2022-10-20T20:45:47.190Z,18.20
2022-10-20T20:48:14.040Z,18.30
2022-10-20T20:50:40.932Z,18.20
2022-10-20T20:53:07.867Z,18.20
2022-10-20T20:55:34.697Z,18.20
2022-10-20T20:58:01.521Z,18.20
2022-10-20T21:00:28.384Z,18.20
2022-10-20T21:05:27.823Z,18.20
2022-10-20T21:07:54.738Z,18.20
2022-10-20T21:10:21.611Z,18.10
2022-10-20T21:12:48.426Z,18.10
2022-10-20T21:15:15.520Z,18.10
2022-10-20T21:17:42.343Z,18.10
2022-10-20T21:20:09.655Z,18.10
2022-10-20T21:22:36.614Z,18.10
2022-10-20T21:25:03.831Z,18.10
2022-10-20T21:27:30.820Z,18.00
2022-10-20T21:29:57.670Z,18.00
2022-10-20T21:32:24.565Z,18.00
2022-10-20T21:34:51.503Z,18.00
2022-10-20T21:37:18.339Z,18.10
2022-10-20T21:39:45.238Z,18.00
2022-10-20T21:42:12.047Z,18.00
2022-10-20T21:44:38.838Z,18.00
2022-10-20T21:47:05.706Z,18.00
2022-10-20T21:49:33.740Z,18.00
2022-10-20T21:52:00.564Z,18.00
2022-10-20T21:54:28.860Z,18.00
2022-10-20T21:56:56.635Z,18.00
2022-10-20T21:59:31.107Z,18.00
2022-10-20T22:02:00.799Z,18.00
2022-10-20T22:04:29.174Z,18.00
2022-10-20T22:06:56.498Z,17.90
2022-10-20T22:09:23.692Z,17.90
2022-10-20T22:11:55.137Z,17.90
2022-10-20T22:14:22.754Z,17.90
2022-10-20T22:16:49.632Z,17.80
2022-10-20T22:19:21.993Z,17.80
2022-10-20T22:21:50.281Z,17.80
2022-10-20T22:24:18.801Z,17.80
2022-10-20T22:26:46.449Z,17.80
2022-10-20T22:29:13.546Z,17.80
2022-10-20T22:31:41.296Z,17.80
2022-10-20T22:34:09.505Z,17.80
2022-10-20T22:36:37.141Z,17.80
2022-10-20T22:39:04.557Z,17.80
2022-10-20T22:41:31.363Z,17.80
2022-10-20T22:43:58.288Z,17.80
2022-10-20T22:46:25.188Z,17.80
2022-10-20T22:48:52.075Z,17.70
2022-10-20T22:51:18.999Z,17.70
2022-10-20T22:53:45.875Z,17.80
2022-10-20T22:56:15.655Z,17.80
2022-10-20T22:58:43.152Z,17.80
2022-10-20T23:01:16.134Z,17.80
2022-10-20T23:03:43.655Z,17.70
2022-10-20T23:06:13.529Z,17.70
2022-10-20T23:08:43.259Z,17.70
2022-10-20T23:11:10.931Z,17.80
2022-10-20T23:13:37.804Z,17.80
2022-10-20T23:16:05.280Z,17.80
2022-10-20T23:18:32.386Z,17.80
2022-10-20T23:20:59.201Z,17.80
2022-10-20T23:23:26.256Z,17.80
2022-10-20T23:25:53.075Z,17.70
2022-10-20T23:28:20.604Z,17.70
2022-10-20T23:30:47.575Z,17.70
2022-10-20T23:33:14.665Z,17.70
2022-10-20T23:35:41.494Z,17.70
2022-10-20T23:38:10.046Z,17.70
2022-10-20T23:40:37.265Z,17.70
2022-10-20T23:43:04.599Z,17.70
2022-10-20T23:45:34.058Z,17.70
2022-10-20T23:48:03.853Z,17.70
2022-10-20T23:50:30.745Z,17.80
2022-10-20T23:52:57.516Z,17.70
2022-10-20T23:55:24.322Z,17.70
2022-10-20T23:57:51.314Z,17.70
